sensor_id;sensor_type;location;lat;lon;timestamp;pressure;altitude;pressure_sealevel;temperature
77331;BMP280;66405;48.328;7.820;2023-01-28T00:00:32;100495.03;;;3.01
77331;BMP280;66405;48.328;7.820;2023-01-28T00:02:58;100483.59;;;3.00
77331;BMP280;66405;48.328;7.820;2023-01-28T00:05:23;100485.13;;;3.02
77331;BMP280;66405;48.328;7.820;2023-01-28T00:07:49;100488.56;;;3.02
77331;BMP280;66405;48.328;7.820;2023-01-28T00:10:15;100483.97;;;3.03
77331;BMP280;66405;48.328;7.820;2023-01-28T00:12:41;100487.06;;;3.05
77331;BMP280;66405;48.328;7.820;2023-01-28T00:15:07;100484.00;;;3.06
77331;BMP280;66405;48.328;7.820;2023-01-28T00:17:32;100486.69;;;3.06
77331;BMP280;66405;48.328;7.820;2023-01-28T00:19:58;100485.16;;;3.09
77331;BMP280;66405;48.328;7.820;2023-01-28T00:22:23;100473.75;;;3.12
77331;BMP280;66405;48.328;7.820;2023-01-28T00:24:49;100479.09;;;3.12
77331;BMP280;66405;48.328;7.820;2023-01-28T00:27:14;100477.94;;;3.13
77331;BMP280;66405;48.328;7.820;2023-01-28T00:29:40;100474.53;;;3.16
77331;BMP280;66405;48.328;7.820;2023-01-28T00:32:05;100471.47;;;3.14
77331;BMP280;66405;48.328;7.820;2023-01-28T00:34:31;100477.56;;;3.14
77331;BMP280;66405;48.328;7.820;2023-01-28T00:36:57;100471.88;;;3.16
77331;BMP280;66405;48.328;7.820;2023-01-28T00:39:24;100474.16;;;3.18
77331;BMP280;66405;48.328;7.820;2023-01-28T00:41:50;100470.75;;;3.17
77331;BMP280;66405;48.328;7.820;2023-01-28T00:44:16;100459.28;;;3.17
77331;BMP280;66405;48.328;7.820;2023-01-28T00:46:42;100467.28;;;3.17
77331;BMP280;66405;48.328;7.820;2023-01-28T00:49:08;100461.94;;;3.17
77331;BMP280;66405;48.328;7.820;2023-01-28T00:51:33;100463.06;;;3.15
77331;BMP280;66405;48.328;7.820;2023-01-28T00:53:59;100465.75;;;3.15
77331;BMP280;66405;48.328;7.820;2023-01-28T00:56:25;100466.88;;;3.14
77331;BMP280;66405;48.328;7.820;2023-01-28T00:58:51;100464.22;;;3.14
77331;BMP280;66405;48.328;7.820;2023-01-28T01:01:19;100457.72;;;3.15
77331;BMP280;66405;48.328;7.820;2023-01-28T01:03:45;100463.06;;;3.15
77331;BMP280;66405;48.328;7.820;2023-01-28T01:06:12;100460.81;;;3.18
77331;BMP280;66405;48.328;7.820;2023-01-28T01:08:38;100458.53;;;3.20
77331;BMP280;66405;48.328;7.820;2023-01-28T01:11:09;100470.38;;;3.22
77331;BMP280;66405;48.328;7.820;2023-01-28T01:13:35;100463.13;;;3.23
77331;BMP280;66405;48.328;7.820;2023-01-28T01:18:31;100468.88;;;3.28
77331;BMP280;66405;48.328;7.820;2023-01-28T01:20:58;100478.41;;;3.29
77331;BMP280;66405;48.328;7.820;2023-01-28T01:23:26;100477.63;;;3.29
77331;BMP280;66405;48.328;7.820;2023-01-28T01:25:51;100477.25;;;3.30
77331;BMP280;66405;48.328;7.820;2023-01-28T01:28:17;100484.13;;;3.31
77331;BMP280;66405;48.328;7.820;2023-01-28T01:30:43;100482.59;;;3.30
77331;BMP280;66405;48.328;7.820;2023-01-28T01:33:08;100481.47;;;3.28
77331;BMP280;66405;48.328;7.820;2023-01-28T01:35:34;100479.53;;;3.25
77331;BMP280;66405;48.328;7.820;2023-01-28T01:37:59;100486.00;;;3.20
77331;BMP280;66405;48.328;7.820;2023-01-28T01:40:27;100477.59;;;3.18
77331;BMP280;66405;48.328;7.820;2023-01-28T01:42:54;100484.84;;;3.18
77331;BMP280;66405;48.328;7.820;2023-01-28T01:45:20;100484.84;;;3.18
77331;BMP280;66405;48.328;7.820;2023-01-28T01:48:05;100487.91;;;3.16
77331;BMP280;66405;48.328;7.820;2023-01-28T01:50:52;100487.13;;;3.15
77331;BMP280;66405;48.328;7.820;2023-01-28T01:53:20;100484.81;;;3.14
77331;BMP280;66405;48.328;7.820;2023-01-28T01:55:49;100484.81;;;3.14
77331;BMP280;66405;48.328;7.820;2023-01-28T01:58:18;100476.03;;;3.13
77331;BMP280;66405;48.328;7.820;2023-01-28T02:00:46;100481.38;;;3.13
77331;BMP280;66405;48.328;7.820;2023-01-28T02:03:11;100483.69;;;3.15
77331;BMP280;66405;48.328;7.820;2023-01-28T02:05:38;100484.44;;;3.15
77331;BMP280;66405;48.328;7.820;2023-01-28T02:08:04;100479.88;;;3.16
77331;BMP280;66405;48.328;7.820;2023-01-28T02:13:23;100481.44;;;3.17
77331;BMP280;66405;48.328;7.820;2023-01-28T02:15:50;100486.75;;;3.17
77331;BMP280;66405;48.328;7.820;2023-01-28T02:18:16;100487.53;;;3.18
77331;BMP280;66405;48.328;7.820;2023-01-28T02:31:21;100474.91;;;3.14
77331;BMP280;66405;48.328;7.820;2023-01-28T02:33:55;100475.69;;;3.15
77331;BMP280;66405;48.328;7.820;2023-01-28T02:39:20;100477.97;;;3.17
77331;BMP280;66405;48.328;7.820;2023-01-28T02:41:52;100476.81;;;3.14
77331;BMP280;66405;48.328;7.820;2023-01-28T02:44:19;100475.25;;;3.09
77331;BMP280;66405;48.328;7.820;2023-01-28T02:46:45;100472.19;;;3.07
77331;BMP280;66405;48.328;7.820;2023-01-28T02:49:42;100481.72;;;3.08
77331;BMP280;66405;48.328;7.820;2023-01-28T02:52:16;100485.16;;;3.09
77331;BMP280;66405;48.328;7.820;2023-01-28T03:00:02;100494.28;;;3.04
77331;BMP280;66405;48.328;7.820;2023-01-28T03:02:35;100496.19;;;3.04
77331;BMP280;66405;48.328;7.820;2023-01-28T03:07:28;100485.53;;;3.04
77331;BMP280;66405;48.328;7.820;2023-01-28T03:09:57;100496.59;;;3.06
77331;BMP280;66405;48.328;7.820;2023-01-28T03:12:30;100492.00;;;3.03
77331;BMP280;66405;48.328;7.820;2023-01-28T03:15:19;100504.59;;;3.02
77331;BMP280;66405;48.328;7.820;2023-01-28T03:18:12;100497.34;;;3.03
77331;BMP280;66405;48.328;7.820;2023-01-28T03:27:22;100503.41;;;2.92
77331;BMP280;66405;48.328;7.820;2023-01-28T03:30:17;100504.94;;;2.93
77331;BMP280;66405;48.328;7.820;2023-01-28T03:33:08;100509.13;;;2.91
77331;BMP280;66405;48.328;7.820;2023-01-28T03:35:52;100518.25;;;2.90
77331;BMP280;66405;48.328;7.820;2023-01-28T03:38:38;100518.25;;;2.90
77331;BMP280;66405;48.328;7.820;2023-01-28T03:41:20;100512.13;;;2.89
77331;BMP280;66405;48.328;7.820;2023-01-28T03:43:47;100507.16;;;2.88
77331;BMP280;66405;48.328;7.820;2023-01-28T03:46:13;100517.09;;;2.87
77331;BMP280;66405;48.328;7.820;2023-01-28T03:48:38;100517.84;;;2.88
77331;BMP280;66405;48.328;7.820;2023-01-28T03:51:07;100513.66;;;2.87
77331;BMP280;66405;48.328;7.820;2023-01-28T03:53:32;100514.81;;;2.89
77331;BMP280;66405;48.328;7.820;2023-01-28T03:55:58;100517.13;;;2.91
77331;BMP280;66405;48.328;7.820;2023-01-28T03:58:24;100510.66;;;2.92
77331;BMP280;66405;48.328;7.820;2023-01-28T04:00:52;100516.75;;;2.92
77331;BMP280;66405;48.328;7.820;2023-01-28T04:03:19;100519.81;;;2.94
77331;BMP280;66405;48.328;7.820;2023-01-28T04:05:58;100523.66;;;2.97
77331;BMP280;66405;48.328;7.820;2023-01-28T04:08:27;100522.88;;;2.96
77331;BMP280;66405;48.328;7.820;2023-01-28T04:11:09;100520.22;;;2.96
77331;BMP280;66405;48.328;7.820;2023-01-28T04:13:43;100521.75;;;2.97
77331;BMP280;66405;48.328;7.820;2023-01-28T04:16:12;100528.22;;;2.96
77331;BMP280;66405;48.328;7.820;2023-01-28T04:18:39;100527.09;;;2.97
77331;BMP280;66405;48.328;7.820;2023-01-28T04:21:06;100527.44;;;2.99
77331;BMP280;66405;48.328;7.820;2023-01-28T04:23:33;100524.03;;;2.99
77331;BMP280;66405;48.328;7.820;2023-01-28T04:26:00;100531.66;;;2.97
77331;BMP280;66405;48.328;7.820;2023-01-28T04:28:26;100536.63;;;2.98
77331;BMP280;66405;48.328;7.820;2023-01-28T04:30:51;100540.78;;;2.99
77331;BMP280;66405;48.328;7.820;2023-01-28T04:33:37;100532.06;;;2.99
77331;BMP280;66405;48.328;7.820;2023-01-28T04:36:18;100537.78;;;3.01
77331;BMP280;66405;48.328;7.820;2023-01-28T04:38:59;100530.13;;;3.03
77331;BMP280;66405;48.328;7.820;2023-01-28T04:41:41;100534.75;;;3.06
77331;BMP280;66405;48.328;7.820;2023-01-28T04:44:15;100539.34;;;3.09
77331;BMP280;66405;48.328;7.820;2023-01-28T04:46:54;100536.69;;;3.09
77331;BMP280;66405;48.328;7.820;2023-01-28T04:49:39;100543.91;;;3.09
77331;BMP280;66405;48.328;7.820;2023-01-28T04:52:17;100542.03;;;3.09
77331;BMP280;66405;48.328;7.820;2023-01-28T04:54:55;100553.84;;;3.08
77331;BMP280;66405;48.328;7.820;2023-01-28T04:57:22;100555.38;;;3.09
77331;BMP280;66405;48.328;7.820;2023-01-28T04:59:47;100555.41;;;3.13
77331;BMP280;66405;48.328;7.820;2023-01-28T05:02:14;100553.13;;;3.15
77331;BMP280;66405;48.328;7.820;2023-01-28T05:04:41;100552.00;;;3.16
77331;BMP280;66405;48.328;7.820;2023-01-28T05:07:08;100548.19;;;3.17
77331;BMP280;66405;48.328;7.820;2023-01-28T05:09:35;100555.81;;;3.15
77331;BMP280;66405;48.328;7.820;2023-01-28T05:12:02;100558.47;;;3.15
77331;BMP280;66405;48.328;7.820;2023-01-28T05:14:29;100560.78;;;3.17
77331;BMP280;66405;48.328;7.820;2023-01-28T05:17:17;100567.66;;;3.18
77331;BMP280;66405;48.328;7.820;2023-01-28T05:19:43;100558.09;;;3.17
77331;BMP280;66405;48.328;7.820;2023-01-28T05:22:16;100557.69;;;3.14
77331;BMP280;66405;48.328;7.820;2023-01-28T05:24:47;100554.69;;;3.16
77331;BMP280;66405;48.328;7.820;2023-01-28T05:27:13;100558.09;;;3.17
77331;BMP280;66405;48.328;7.820;2023-01-28T05:29:38;100571.13;;;3.22
77331;BMP280;66405;48.328;7.820;2023-01-28T05:32:04;100558.53;;;3.22
77331;BMP280;66405;48.328;7.820;2023-01-28T05:34:30;100560.81;;;3.24
77331;BMP280;66405;48.328;7.820;2023-01-28T05:36:59;100567.72;;;3.28
77331;BMP280;66405;48.328;7.820;2023-01-28T05:39:44;100563.50;;;3.27
77331;BMP280;66405;48.328;7.820;2023-01-28T05:42:10;100561.22;;;3.29
77331;BMP280;66405;48.328;7.820;2023-01-28T05:44:41;100569.22;;;3.29
77331;BMP280;66405;48.328;7.820;2023-01-28T05:47:13;100558.94;;;3.31
77331;BMP280;66405;48.328;7.820;2023-01-28T05:50:01;100566.56;;;3.33
77331;BMP280;66405;48.328;7.820;2023-01-28T05:52:30;100564.28;;;3.31
77331;BMP280;66405;48.328;7.820;2023-01-28T05:54:56;100566.22;;;3.31
77331;BMP280;66405;48.328;7.820;2023-01-28T05:57:22;100573.44;;;3.30
77331;BMP280;66405;48.328;7.820;2023-01-28T05:59:48;100577.66;;;3.31
77331;BMP280;66405;48.328;7.820;2023-01-28T06:02:14;100578.41;;;3.32
77331;BMP280;66405;48.328;7.820;2023-01-28T06:04:40;100576.91;;;3.31
77331;BMP280;66405;48.328;7.820;2023-01-28T06:07:06;100584.13;;;3.30
77331;BMP280;66405;48.328;7.820;2023-01-28T06:09:32;100578.41;;;3.32
77331;BMP280;66405;48.328;7.820;2023-01-28T06:11:58;100583.75;;;3.32
77331;BMP280;66405;48.328;7.820;2023-01-28T06:14:24;100585.28;;;3.33
77331;BMP280;66405;48.328;7.820;2023-01-28T06:17:03;100579.94;;;3.33
77331;BMP280;66405;48.328;7.820;2023-01-28T06:19:55;100584.53;;;3.33
77331;BMP280;66405;48.328;7.820;2023-01-28T06:22:21;100590.25;;;3.31
77331;BMP280;66405;48.328;7.820;2023-01-28T06:24:46;100601.28;;;3.29
77331;BMP280;66405;48.328;7.820;2023-01-28T06:27:12;100599.41;;;3.30
77331;BMP280;66405;48.328;7.820;2023-01-28T06:29:37;100602.81;;;3.30
77331;BMP280;66405;48.328;7.820;2023-01-28T06:32:04;100605.50;;;3.30
77331;BMP280;66405;48.328;7.820;2023-01-28T06:34:29;100603.22;;;3.29
77331;BMP280;66405;48.328;7.820;2023-01-28T06:36:55;100610.09;;;3.30
77331;BMP280;66405;48.328;7.820;2023-01-28T06:39:20;100615.06;;;3.31
77331;BMP280;66405;48.328;7.820;2023-01-28T06:41:47;100614.66;;;3.33
77331;BMP280;66405;48.328;7.820;2023-01-28T06:44:13;100615.06;;;3.35
77331;BMP280;66405;48.328;7.820;2023-01-28T06:46:38;100619.69;;;3.38
77331;BMP280;66405;48.328;7.820;2023-01-28T06:49:04;100629.59;;;3.38
77331;BMP280;66405;48.328;7.820;2023-01-28T06:51:30;100626.91;;;3.38
77331;BMP280;66405;48.328;7.820;2023-01-28T06:53:55;100627.69;;;3.38
77331;BMP280;66405;48.328;7.820;2023-01-28T06:56:21;100629.59;;;3.38
77331;BMP280;66405;48.328;7.820;2023-01-28T06:58:46;100625.78;;;3.39
77331;BMP280;66405;48.328;7.820;2023-01-28T07:01:12;100629.59;;;3.38
77331;BMP280;66405;48.328;7.820;2023-01-28T07:03:37;100636.06;;;3.37
77331;BMP280;66405;48.328;7.820;2023-01-28T07:06:03;100636.06;;;3.37
77331;BMP280;66405;48.328;7.820;2023-01-28T07:08:29;100642.94;;;3.38
77331;BMP280;66405;48.328;7.820;2023-01-28T07:10:54;100641.06;;;3.38
77331;BMP280;66405;48.328;7.820;2023-01-28T07:13:20;100642.59;;;3.36
77331;BMP280;66405;48.328;7.820;2023-01-28T07:15:45;100650.97;;;3.38
77331;BMP280;66405;48.328;7.820;2023-01-28T07:18:13;100648.31;;;3.38
77331;BMP280;66405;48.328;7.820;2023-01-28T07:20:38;100648.69;;;3.40
77331;BMP280;66405;48.328;7.820;2023-01-28T07:23:03;100652.16;;;3.40
77331;BMP280;66405;48.328;7.820;2023-01-28T07:25:29;100650.66;;;3.43
77331;BMP280;66405;48.328;7.820;2023-01-28T07:27:55;100649.91;;;3.46
77331;BMP280;66405;48.328;7.820;2023-01-28T07:30:22;100652.97;;;3.48
77331;BMP280;66405;48.328;7.820;2023-01-28T07:32:57;100662.91;;;3.51
77331;BMP280;66405;48.328;7.820;2023-01-28T07:35:24;100659.13;;;3.52
77331;BMP280;66405;48.328;7.820;2023-01-28T07:37:56;100662.53;;;3.53
77331;BMP280;66405;48.328;7.820;2023-01-28T07:40:23;100670.94;;;3.55
77331;BMP280;66405;48.328;7.820;2023-01-28T07:42:49;100669.81;;;3.56
77331;BMP280;66405;48.328;7.820;2023-01-28T07:45:20;100678.56;;;3.56
77331;BMP280;66405;48.328;7.820;2023-01-28T07:48:06;100669.41;;;3.57
77331;BMP280;66405;48.328;7.820;2023-01-28T07:50:34;100677.47;;;3.61
77331;BMP280;66405;48.328;7.820;2023-01-28T07:53:07;100677.13;;;3.66
77331;BMP280;66405;48.328;7.820;2023-01-28T07:55:33;100679.06;;;3.69
77331;BMP280;66405;48.328;7.820;2023-01-28T07:58:03;100680.59;;;3.70
77331;BMP280;66405;48.328;7.820;2023-01-28T08:00:31;100681.78;;;3.73
77331;BMP280;66405;48.328;7.820;2023-01-28T08:02:59;100688.66;;;3.74
77331;BMP280;66405;48.328;7.820;2023-01-28T08:05:37;100688.28;;;3.75
77331;BMP280;66405;48.328;7.820;2023-01-28T08:08:06;100687.13;;;3.76
77331;BMP280;66405;48.328;7.820;2023-01-28T08:10:35;100694.03;;;3.81
77331;BMP280;66405;48.328;7.820;2023-01-28T08:13:00;100694.78;;;3.85
77331;BMP280;66405;48.328;7.820;2023-01-28T08:15:28;100690.63;;;3.88
77331;BMP280;66405;48.328;7.820;2023-01-28T08:17:55;100691.41;;;3.92
77331;BMP280;66405;48.328;7.820;2023-01-28T08:20:22;100696.78;;;3.95
77331;BMP280;66405;48.328;7.820;2023-01-28T08:22:48;100690.31;;;4.00
77331;BMP280;66405;48.328;7.820;2023-01-28T08:25:14;100698.00;;;4.09
77331;BMP280;66405;48.328;7.820;2023-01-28T08:27:39;100698.03;;;4.20
77331;BMP280;66405;48.328;7.820;2023-01-28T08:30:06;100699.59;;;4.28
77331;BMP280;66405;48.328;7.820;2023-01-28T08:32:34;100699.66;;;4.39
77331;BMP280;66405;48.328;7.820;2023-01-28T08:35:02;100693.16;;;4.51
77331;BMP280;66405;48.328;7.820;2023-01-28T08:37:30;100704.69;;;4.58
77331;BMP280;66405;48.328;7.820;2023-01-28T08:39:57;100705.09;;;4.71
77331;BMP280;66405;48.328;7.820;2023-01-28T08:42:23;100700.13;;;4.84
77331;BMP280;66405;48.328;7.820;2023-01-28T08:44:53;100706.28;;;4.96
77331;BMP280;66405;48.328;7.820;2023-01-28T08:47:19;100701.69;;;5.07
77331;BMP280;66405;48.328;7.820;2023-01-28T08:49:45;100702.44;;;5.11
77331;BMP280;66405;48.328;7.820;2023-01-28T08:52:10;100712.03;;;5.16
77331;BMP280;66405;48.328;7.820;2023-01-28T08:54:36;100703.97;;;5.16
77331;BMP280;66405;48.328;7.820;2023-01-28T08:57:02;100713.56;;;5.13
77331;BMP280;66405;48.328;7.820;2023-01-28T08:59:27;100708.56;;;5.19
77331;BMP280;66405;48.328;7.820;2023-01-28T09:01:53;100714.69;;;5.27
77331;BMP280;66405;48.328;7.820;2023-01-28T09:04:18;100718.16;;;5.38
77331;BMP280;66405;48.328;7.820;2023-01-28T09:06:44;100719.69;;;5.50
77331;BMP280;66405;48.328;7.820;2023-01-28T09:09:09;100730.38;;;5.57
77331;BMP280;66405;48.328;7.820;2023-01-28T09:11:35;100729.59;;;5.67
77331;BMP280;66405;48.328;7.820;2023-01-28T09:14:00;100727.28;;;5.80
77331;BMP280;66405;48.328;7.820;2023-01-28T09:16:26;100720.38;;;5.79
77331;BMP280;66405;48.328;7.820;2023-01-28T09:18:52;100721.91;;;5.80
77331;BMP280;66405;48.328;7.820;2023-01-28T09:21:18;100725.31;;;5.88
77331;BMP280;66405;48.328;7.820;2023-01-28T09:23:44;100731.03;;;6.01
77331;BMP280;66405;48.328;7.820;2023-01-28T09:26:10;100734.44;;;6.16
77331;BMP280;66405;48.328;7.820;2023-01-28T09:28:35;100734.75;;;6.29
77331;BMP280;66405;48.328;7.820;2023-01-28T09:31:09;100729.00;;;6.37
77331;BMP280;66405;48.328;7.820;2023-01-28T09:33:37;100736.56;;;6.50
77331;BMP280;66405;48.328;7.820;2023-01-28T09:36:04;100731.53;;;6.63
77331;BMP280;66405;48.328;7.820;2023-01-28T09:38:30;100737.63;;;6.67
77331;BMP280;66405;48.328;7.820;2023-01-28T09:40:56;100739.47;;;6.81
77331;BMP280;66405;48.328;7.820;2023-01-28T09:46:10;100751.41;;;7.29
77331;BMP280;66405;48.328;7.820;2023-01-28T09:48:41;100745.28;;;7.66
77331;BMP280;66405;48.328;7.820;2023-01-28T09:51:35;100748.38;;;8.30
77331;BMP280;66405;48.328;7.820;2023-01-28T09:57:02;100752.88;;;9.15
77331;BMP280;66405;48.328;7.820;2023-01-28T09:59:35;100746.06;;;9.31
77331;BMP280;66405;48.328;7.820;2023-01-28T10:10:28;100749.88;;;9.33
77331;BMP280;66405;48.328;7.820;2023-01-28T10:18:10;100743.66;;;9.13
77331;BMP280;66405;48.328;7.820;2023-01-28T10:20:42;100732.34;;;8.98
77331;BMP280;66405;48.328;7.820;2023-01-28T10:23:30;100735.72;;;9.06
77331;BMP280;66405;48.328;7.820;2023-01-28T10:26:04;100738.06;;;9.04
77331;BMP280;66405;48.328;7.820;2023-01-28T10:28:34;100730.91;;;8.93
77331;BMP280;66405;48.328;7.820;2023-01-28T10:31:01;100732.94;;;8.85
77331;BMP280;66405;48.328;7.820;2023-01-28T10:35:54;100732.94;;;8.85
77331;BMP280;66405;48.328;7.820;2023-01-28T10:38:24;100727.25;;;8.80
77331;BMP280;66405;48.328;7.820;2023-01-28T10:40:58;100720.94;;;8.66
77331;BMP280;66405;48.328;7.820;2023-01-28T10:43:28;100724.97;;;8.51
77331;BMP280;66405;48.328;7.820;2023-01-28T10:48:37;100718.59;;;8.41
77331;BMP280;66405;48.328;7.820;2023-01-28T10:51:29;100712.59;;;8.30
77331;BMP280;66405;48.328;7.820;2023-01-28T10:53:55;100718.91;;;8.16
77331;BMP280;66405;48.328;7.820;2023-01-28T10:56:26;100719.41;;;8.07
77331;BMP280;66405;48.328;7.820;2023-01-28T11:01:25;100723.41;;;8.26
77331;BMP280;66405;48.328;7.820;2023-01-28T11:04:02;100709.19;;;8.26
77331;BMP280;66405;48.328;7.820;2023-01-28T11:06:28;100716.16;;;8.23
77331;BMP280;66405;48.328;7.820;2023-01-28T11:08:56;100719.03;;;8.36
77331;BMP280;66405;48.328;7.820;2023-01-28T11:11:25;100718.34;;;8.32
77331;BMP280;66405;48.328;7.820;2023-01-28T11:13:53;100726.22;;;8.19
77331;BMP280;66405;48.328;7.820;2023-01-28T11:16:21;100715.47;;;8.15
77331;BMP280;66405;48.328;7.820;2023-01-28T11:18:59;100714.53;;;8.29
77331;BMP280;66405;48.328;7.820;2023-01-28T11:21:30;100717.22;;;8.29
77331;BMP280;66405;48.328;7.820;2023-01-28T11:24:02;100713.00;;;8.28
77331;BMP280;66405;48.328;7.820;2023-01-28T11:26:35;100716.06;;;8.30
77331;BMP280;66405;48.328;7.820;2023-01-28T11:29:02;100719.59;;;8.51
77331;BMP280;66405;48.328;7.820;2023-01-28T11:31:27;100714.44;;;8.64
77331;BMP280;66405;48.328;7.820;2023-01-28T11:33:59;100717.56;;;8.59
77331;BMP280;66405;48.328;7.820;2023-01-28T11:36:28;100713.03;;;8.52
77331;BMP280;66405;48.328;7.820;2023-01-28T11:41:30;100712.94;;;8.32
77331;BMP280;66405;48.328;7.820;2023-01-28T11:43:57;100713.94;;;8.14
77331;BMP280;66405;48.328;7.820;2023-01-28T12:00:50;100701.44;;;8.28
77331;BMP280;66405;48.328;7.820;2023-01-28T12:12:04;100700.19;;;7.78
77331;BMP280;66405;48.328;7.820;2023-01-28T12:15:07;100703.31;;;7.69
77331;BMP280;66405;48.328;7.820;2023-01-28T12:17:58;100698.41;;;7.64
77331;BMP280;66405;48.328;7.820;2023-01-28T12:21:04;100707.38;;;7.50
77331;BMP280;66405;48.328;7.820;2023-01-28T12:29:14;100705.44;;;7.16
77331;BMP280;66405;48.328;7.820;2023-01-28T12:34:45;100699.78;;;6.99
77331;BMP280;66405;48.328;7.820;2023-01-28T12:37:41;100719.81;;;6.91
77331;BMP280;66405;48.328;7.820;2023-01-28T12:42:41;100715.31;;;6.77
77331;BMP280;66405;48.328;7.820;2023-01-28T12:45:46;100713.06;;;6.68
77331;BMP280;66405;48.328;7.820;2023-01-28T12:48:33;100714.25;;;6.67
77331;BMP280;66405;48.328;7.820;2023-01-28T12:51:02;100716.94;;;6.67
77331;BMP280;66405;48.328;7.820;2023-01-28T12:56:26;100714.19;;;6.75
77331;BMP280;66405;48.328;7.820;2023-01-28T12:59:00;100704.59;;;6.74
77331;BMP280;66405;48.328;7.820;2023-01-28T13:07:31;100701.13;;;6.77
77331;BMP280;66405;48.328;7.820;2023-01-28T13:10:02;100702.25;;;6.79
77331;BMP280;66405;48.328;7.820;2023-01-28T13:12:30;100699.56;;;6.79
77331;BMP280;66405;48.328;7.820;2023-01-28T13:14:57;100709.19;;;6.73
77331;BMP280;66405;48.328;7.820;2023-01-28T13:17:29;100708.09;;;6.67
77331;BMP280;66405;48.328;7.820;2023-01-28T13:19:57;100715.41;;;6.59
77331;BMP280;66405;48.328;7.820;2023-01-28T13:22:33;100710.88;;;6.52
77331;BMP280;66405;48.328;7.820;2023-01-28T13:25:21;100705.97;;;6.36
77331;BMP280;66405;48.328;7.820;2023-01-28T13:28:05;100714.06;;;6.29
77331;BMP280;66405;48.328;7.820;2023-01-28T13:30:34;100715.22;;;6.21
77331;BMP280;66405;48.328;7.820;2023-01-28T13:33:05;100709.16;;;6.13
77331;BMP280;66405;48.328;7.820;2023-01-28T13:35:38;100711.47;;;6.08
77331;BMP280;66405;48.328;7.820;2023-01-28T13:38:18;100718.00;;;6.07
77331;BMP280;66405;48.328;7.820;2023-01-28T13:40:56;100715.31;;;6.07
77331;BMP280;66405;48.328;7.820;2023-01-28T13:48:44;100724.56;;;5.98
77331;BMP280;66405;48.328;7.820;2023-01-28T13:51:32;100725.28;;;5.99
77331;BMP280;66405;48.328;7.820;2023-01-28T13:54:02;100727.97;;;5.99
77331;BMP280;66405;48.328;7.820;2023-01-28T14:02:15;100732.97;;;5.97
77331;BMP280;66405;48.328;7.820;2023-01-28T14:07:59;100731.81;;;5.94
77331;BMP280;66405;48.328;7.820;2023-01-28T14:10:37;100741.00;;;5.97
77331;BMP280;66405;48.328;7.820;2023-01-28T14:16:02;100740.66;;;5.95
77331;BMP280;66405;48.328;7.820;2023-01-28T14:18:34;100748.31;;;5.93
77331;BMP280;66405;48.328;7.820;2023-01-28T14:21:02;100744.50;;;5.94
77331;BMP280;66405;48.328;7.820;2023-01-28T14:23:33;100749.47;;;5.92
77331;BMP280;66405;48.328;7.820;2023-01-28T14:36:38;100760.63;;;5.68
77331;BMP280;66405;48.328;7.820;2023-01-28T14:39:09;100759.88;;;5.64
77331;BMP280;66405;48.328;7.820;2023-01-28T14:41:36;100758.72;;;5.62
77331;BMP280;66405;48.328;7.820;2023-01-28T14:44:02;100757.94;;;5.57
77331;BMP280;66405;48.328;7.820;2023-01-28T14:46:44;100765.22;;;5.53
77331;BMP280;66405;48.328;7.820;2023-01-28T14:52:20;100774.44;;;5.49
77331;BMP280;66405;48.328;7.820;2023-01-28T14:57:51;100778.28;;;5.44
77331;BMP280;66405;48.328;7.820;2023-01-28T15:00:24;100790.53;;;5.42
77331;BMP280;66405;48.328;7.820;2023-01-28T15:02:50;100791.28;;;5.38
77331;BMP280;66405;48.328;7.820;2023-01-28T15:05:35;100802.41;;;5.33
77331;BMP280;66405;48.328;7.820;2023-01-28T15:08:00;100803.16;;;5.30
77331;BMP280;66405;48.328;7.820;2023-01-28T15:10:32;100795.13;;;5.30
77331;BMP280;66405;48.328;7.820;2023-01-28T15:13:14;100800.88;;;5.29
77331;BMP280;66405;48.328;7.820;2023-01-28T15:15:45;100808.13;;;5.24
77331;BMP280;66405;48.328;7.820;2023-01-28T15:18:16;100811.16;;;5.19
77331;BMP280;66405;48.328;7.820;2023-01-28T15:20:44;100820.00;;;5.16
77331;BMP280;66405;48.328;7.820;2023-01-28T15:23:13;100826.88;;;5.14
77331;BMP280;66405;48.328;7.820;2023-01-28T15:25:40;100827.63;;;5.11
77331;BMP280;66405;48.328;7.820;2023-01-28T15:28:05;100828.03;;;5.13
77331;BMP280;66405;48.328;7.820;2023-01-28T15:30:44;100832.25;;;5.14
77331;BMP280;66405;48.328;7.820;2023-01-28T15:33:15;100839.88;;;5.12
77331;BMP280;66405;48.328;7.820;2023-01-28T15:35:49;100833.72;;;5.07
77331;BMP280;66405;48.328;7.820;2023-01-28T15:38:15;100832.97;;;5.03
77331;BMP280;66405;48.328;7.820;2023-01-28T15:40:47;100844.44;;;5.04
77331;BMP280;66405;48.328;7.820;2023-01-28T15:43:19;100835.25;;;5.01
77331;BMP280;66405;48.328;7.820;2023-01-28T15:45:46;100839.84;;;5.01
77331;BMP280;66405;48.328;7.820;2023-01-28T15:48:13;100852.09;;;4.98
77331;BMP280;66405;48.328;7.820;2023-01-28T15:50:40;100835.63;;;4.96
77331;BMP280;66405;48.328;7.820;2023-01-28T15:53:10;100847.88;;;4.94
77331;BMP280;66405;48.328;7.820;2023-01-28T15:55:38;100850.94;;;4.92
77331;BMP280;66405;48.328;7.820;2023-01-28T15:58:28;100855.88;;;4.90
77331;BMP280;66405;48.328;7.820;2023-01-28T16:01:03;100866.19;;;4.88
77331;BMP280;66405;48.328;7.820;2023-01-28T16:03:36;100865.03;;;4.85
77331;BMP280;66405;48.328;7.820;2023-01-28T16:06:06;100864.66;;;4.83
77331;BMP280;66405;48.328;7.820;2023-01-28T16:11:25;100870.78;;;4.80
77331;BMP280;66405;48.328;7.820;2023-01-28T16:13:52;100870.41;;;4.78
77331;BMP280;66405;48.328;7.820;2023-01-28T16:18:52;100875.34;;;4.76
77331;BMP280;66405;48.328;7.820;2023-01-28T16:21:24;100867.69;;;4.74
77331;BMP280;66405;48.328;7.820;2023-01-28T16:24:42;100874.19;;;4.73
77331;BMP280;66405;48.328;7.820;2023-01-28T16:26:37;100873.41;;;4.73
77331;BMP280;66405;48.328;7.820;2023-01-28T16:29:14;100875.72;;;4.74
77331;BMP280;66405;48.328;7.820;2023-01-28T16:31:41;100876.50;;;4.75
77331;BMP280;66405;48.328;7.820;2023-01-28T16:34:09;100876.88;;;4.73
77331;BMP280;66405;48.328;7.820;2023-01-28T16:36:34;100874.19;;;4.73
77331;BMP280;66405;48.328;7.820;2023-01-28T16:39:00;100870.72;;;4.73
77331;BMP280;66405;48.328;7.820;2023-01-28T16:41:45;100871.13;;;4.75
77331;BMP280;66405;48.328;7.820;2023-01-28T16:44:15;100873.81;;;4.75
77331;BMP280;66405;48.328;7.820;2023-01-28T16:46:45;100867.69;;;4.74
77331;BMP280;66405;48.328;7.820;2023-01-28T16:49:14;100875.34;;;4.72
77331;BMP280;66405;48.328;7.820;2023-01-28T16:51:41;100882.97;;;4.70